Time;durP1;ratioP1;P1;durP2;ratioP2;P2;SDS_P1;SDS_P2;PMS_P1;PMS_P2;Temp;Humidity;BMP_temperature;BMP_pressure;BME280_temperature;BME280_humidity;BME280_pressure;Samples;Min_cycle;Max_cycle;Signal;HPM_P1;HPM_P2
2022/11/02 00:06:44;;;;;;;10.83;4.73;;;10.40;99.90;;;;;;20920371;28;20731;-72
2022/11/02 00:16:45;;;;;;;9.30;4.20;;;10.40;99.90;;;;;;20924358;28;20232;-76
2022/11/02 00:26:47;;;;;;;9.03;3.60;;;10.50;99.90;;;;;;20918836;28;20205;-75
2022/11/02 00:36:49;;;;;;;7.53;3.27;;;10.30;99.90;;;;;;20917596;28;20565;-75
2022/11/02 00:46:56;;;;;;;8.73;3.10;;;10.10;99.90;;;;;;20916251;28;20206;-76
2022/11/02 00:56:57;;;;;;;9.47;3.30;;;10.20;99.90;;;;;;20916501;28;20237;-75
2022/11/02 01:07:00;;;;;;;7.70;3.10;;;10.60;99.90;;;;;;20914156;28;20245;-76
2022/11/02 01:17:03;;;;;;;6.73;3.30;;;10.00;99.90;;;;;;20911243;28;20245;-75
2022/11/02 01:27:05;;;;;;;5.50;3.60;;;10.10;99.90;;;;;;20830071;28;20206;-74
2022/11/02 01:37:06;;;;;;;8.40;3.00;;;10.00;99.90;;;;;;20830504;28;20284;-76
2022/11/02 01:47:18;;;;;;;7.90;3.20;;;9.90;99.90;;;;;;20830633;28;20676;-75
2022/11/02 01:57:21;;;;;;;5.40;3.10;;;10.00;99.90;;;;;;20831336;28;20243;-72
2022/11/02 02:07:24;;;;;;;10.07;3.20;;;10.00;99.90;;;;;;20846570;28;20583;-72
2022/11/02 02:17:39;;;;;;;6.40;3.53;;;9.90;99.90;;;;;;20845997;28;20295;-71
2022/11/02 02:27:57;;;;;;;6.80;3.27;;;10.00;99.90;;;;;;20844411;28;20217;-72
2022/11/02 02:38:00;;;;;;;6.33;2.93;;;10.00;99.90;;;;;;20844570;28;20635;-72
2022/11/02 02:48:06;;;;;;;12.77;3.93;;;10.10;99.90;;;;;;20843514;28;20205;-76
2022/11/02 02:58:15;;;;;;;6.83;3.20;;;10.20;99.90;;;;;;20843427;28;20235;-74
2022/11/02 03:08:16;;;;;;;7.23;3.37;;;10.30;99.90;;;;;;20841600;28;20239;-72
2022/11/02 03:18:38;;;;;;;11.20;3.30;;;10.30;99.90;;;;;;20840770;28;20241;-72
2022/11/02 03:28:59;;;;;;;9.33;3.13;;;10.30;99.90;;;;;;20827541;28;20211;-71
2022/11/02 03:39:07;;;;;;;7.40;3.10;;;10.40;99.90;;;;;;20839576;28;20570;-71
2022/11/02 03:49:15;;;;;;;7.20;3.30;;;10.40;99.90;;;;;;20839088;28;20269;-71
2022/11/02 03:59:17;;;;;;;7.77;3.30;;;10.40;99.90;;;;;;20838659;28;20242;-71
2022/11/02 04:09:18;;;;;;;8.60;3.20;;;10.40;99.90;;;;;;20837737;28;20296;-74
2022/11/02 04:19:26;;;;;;;6.93;3.23;;;10.40;99.90;;;;;;20836284;28;20241;-75
2022/11/02 04:29:27;;;;;;;8.20;3.43;;;10.40;99.90;;;;;;20835566;28;20206;-75
2022/11/02 04:39:29;;;;;;;5.20;2.97;;;10.40;99.90;;;;;;20835420;28;20238;-75
2022/11/02 04:49:31;;;;;;;6.47;3.10;;;10.40;99.90;;;;;;20834245;28;20269;-76
2022/11/02 04:59:32;;;;;;;6.67;2.73;;;10.40;99.90;;;;;;20833349;28;20238;-75
2022/11/02 05:09:34;;;;;;;7.73;3.03;;;10.30;99.90;;;;;;20831463;28;20247;-75
2022/11/02 05:19:36;;;;;;;8.27;2.90;;;10.30;99.90;;;;;;20831219;28;20228;-73
2022/11/02 05:29:38;;;;;;;12.43;3.17;;;10.30;99.90;;;;;;20828534;28;20257;-74
2022/11/02 05:39:41;;;;;;;9.10;3.47;;;10.50;99.90;;;;;;20830323;28;20237;-74
2022/11/02 05:49:46;;;;;;;6.00;2.93;;;10.60;99.90;;;;;;20829692;28;20629;-73
2022/11/02 05:59:48;;;;;;;6.70;2.50;;;10.60;99.90;;;;;;20829277;28;20292;-73
2022/11/02 06:09:50;;;;;;;7.87;2.90;;;10.80;99.90;;;;;;20829464;28;20256;-74
2022/11/02 06:19:52;;;;;;;9.50;3.63;;;10.90;99.90;;;;;;20828822;28;20240;-69
2022/11/02 06:29:53;;;;;;;7.10;3.03;;;11.00;99.90;;;;;;20828200;28;20207;-71
2022/11/02 06:39:55;;;;;;;8.33;4.17;;;11.20;99.90;;;;;;20827753;28;20654;-72
2022/11/02 06:49:57;;;;;;;11.10;3.50;;;11.40;99.90;;;;;;20836319;28;20259;-71
2022/11/02 07:00:03;;;;;;;7.30;2.60;;;12.00;99.90;;;;;;20841481;28;20240;-72
2022/11/02 07:10:09;;;;;;;6.63;2.20;;;12.00;99.90;;;;;;20841455;28;20275;-72
2022/11/02 07:20:10;;;;;;;7.60;2.47;;;12.50;99.90;;;;;;20840286;28;20229;-72
2022/11/02 07:30:13;;;;;;;11.07;2.50;;;12.60;99.90;;;;;;20836826;28;20208;-72
2022/11/02 07:40:14;;;;;;;8.47;2.30;;;12.70;99.90;;;;;;20838877;28;20246;-72
2022/11/02 07:50:18;;;;;;;11.03;2.70;;;12.90;99.90;;;;;;20838504;28;20611;-72
2022/11/02 08:00:20;;;;;;;7.60;2.60;;;13.10;99.90;;;;;;20834990;28;20239;-72
2022/11/02 08:10:22;;;;;;;6.57;2.30;;;13.10;99.90;;;;;;20836910;28;20295;-75
2022/11/02 08:20:24;;;;;;;10.27;2.50;;;13.30;99.90;;;;;;20836102;28;20240;-72
2022/11/02 08:30:28;;;;;;;8.00;2.60;;;13.50;99.90;;;;;;20835403;28;20541;-71
2022/11/02 08:40:30;;;;;;;17.70;5.97;;;13.50;99.90;;;;;;20834825;28;20243;-72
2022/11/02 08:50:33;;;;;;;6.57;2.00;;;13.80;99.90;;;;;;20833764;28;20577;-72
2022/11/02 09:00:35;;;;;;;8.53;2.47;;;13.90;99.50;;;;;;20832868;28;20247;-73
2022/11/02 09:10:37;;;;;;;10.93;2.43;;;14.00;99.80;;;;;;20831916;28;20240;-72
2022/11/02 09:20:39;;;;;;;13.70;3.17;;;14.10;99.50;;;;;;20830593;28;20232;-74
2022/11/02 09:30:41;;;;;;;14.50;2.20;;;14.40;99.30;;;;;;20828533;28;20216;-72
2022/11/02 09:41:12;;;;;;;8.43;2.40;;;14.60;98.90;;;;;;20829801;28;20229;-71
2022/11/02 09:51:18;;;;;;;9.40;2.20;;;14.80;97.50;;;;;;20820313;28;20235;-71
2022/11/02 10:01:32;;;;;;;11.40;2.63;;;15.00;95.80;;;;;;20829383;28;20244;-72
2022/11/02 10:11:55;;;;;;;6.80;2.00;;;15.20;95.90;;;;;;20828840;28;20282;-72
2022/11/02 10:21:57;;;;;;;9.33;2.43;;;15.30;94.30;;;;;;20835115;28;20592;-72
2022/11/02 10:32:00;;;;;;;9.10;2.27;;;15.60;94.40;;;;;;20844130;28;20209;-73
2022/11/02 10:42:09;;;;;;;11.40;2.10;;;15.70;93.20;;;;;;20843734;28;20711;-71
2022/11/02 10:52:14;;;;;;;6.83;2.00;;;15.60;92.20;;;;;;20842923;28;20216;-72
2022/11/02 11:02:17;;;;;;;4.97;1.70;;;15.50;89.80;;;;;;20841618;28;20683;-71
2022/11/02 11:12:39;;;;;;;11.90;2.70;;;15.50;90.10;;;;;;20841217;28;20201;-71
2022/11/02 11:22:41;;;;;;;7.43;2.17;;;15.60;86.10;;;;;;20839377;28;20254;-71
2022/11/02 11:32:46;;;;;;;5.80;1.90;;;15.70;82.80;;;;;;20836705;28;20239;-71
2022/11/02 11:42:52;;;;;;;11.57;1.90;;;15.60;81.90;;;;;;20839279;28;20243;-72
2022/11/02 11:53:20;;;;;;;7.47;2.13;;;15.80;80.50;;;;;;20837904;28;20206;-71
2022/11/02 12:03:22;;;;;;;6.07;1.67;;;16.10;78.30;;;;;;20836835;28;20614;-70
2022/11/02 12:13:47;;;;;;;5.50;1.63;;;16.50;77.80;;;;;;20836360;28;20241;-72
2022/11/02 12:24:05;;;;;;;10.97;4.47;;;16.40;76.00;;;;;;20835877;28;20553;-73
2022/11/02 12:34:34;;;;;;;6.03;1.80;;;16.00;76.20;;;;;;20835648;28;20233;-73
2022/11/02 12:44:55;;;;;;;11.80;2.40;;;16.00;77.20;;;;;;20830511;28;20267;-72
2022/11/02 12:54:59;;;;;;;8.93;1.93;;;16.30;77.60;;;;;;20832043;28;20236;-74
2022/11/02 13:05:10;;;;;;;5.23;1.57;;;16.50;76.90;;;;;;20831413;28;20234;-72
2022/11/02 13:15:19;;;;;;;6.03;1.80;;;16.60;74.20;;;;;;20831760;28;20715;-72
2022/11/02 13:25:27;;;;;;;6.27;1.60;;;16.60;72.10;;;;;;20862647;28;20218;-71
2022/11/02 13:35:39;;;;;;;6.67;1.70;;;16.70;72.90;;;;;;20825824;28;20237;-73
2022/11/02 13:46:11;;;;;;;6.60;1.80;;;16.70;71.90;;;;;;20829846;28;20214;-72
2022/11/02 13:56:25;;;;;;;11.20;2.17;;;16.60;70.20;;;;;;20829542;28;20820;-72
2022/11/02 14:06:29;;;;;;;12.83;3.47;;;16.50;70.30;;;;;;20843755;28;20297;-73
2022/11/02 14:16:56;;;;;;;9.10;2.37;;;16.60;71.70;;;;;;20843282;28;20292;-70
2022/11/02 14:27:05;;;;;;;12.10;2.27;;;16.60;73.00;;;;;;20828560;28;20357;-72
2022/11/02 14:37:26;;;;;;;6.70;1.77;;;16.80;72.60;;;;;;20828084;28;20288;-76
2022/11/02 14:47:32;;;;;;;8.63;1.67;;;16.70;72.20;;;;;;20827520;28;20209;-73
2022/11/02 14:57:37;;;;;;;7.37;2.03;;;16.60;70.60;;;;;;20827248;28;20242;-72
2022/11/02 15:07:48;;;;;;;11.40;2.20;;;16.30;70.50;;;;;;20830933;28;20244;-72
2022/11/02 15:17:56;;;;;;;10.07;2.50;;;16.00;71.10;;;;;;20842393;28;20237;-73
2022/11/02 15:28:06;;;;;;;5.33;2.73;;;15.30;74.20;;;;;;20838115;28;20660;-73
2022/11/02 15:38:12;;;;;;;7.67;2.63;;;15.40;75.20;;;;;;20837349;28;20235;-74
2022/11/02 15:48:39;;;;;;;10.60;3.70;;;15.00;76.90;;;;;;20839459;28;20567;-73
2022/11/02 15:58:58;;;;;;;13.87;3.30;;;14.60;78.50;;;;;;20836651;28;20232;-77
2022/11/02 16:09:02;;;;;;;13.23;3.60;;;14.50;80.40;;;;;;20837303;28;20248;-77
2022/11/02 16:19:03;;;;;;;14.43;3.53;;;14.30;81.80;;;;;;20835450;28;20699;-74
2022/11/02 16:29:07;;;;;;;8.63;3.00;;;13.90;83.40;;;;;;20845324;28;20267;-74
2022/11/02 16:39:12;;;;;;;12.10;3.90;;;13.90;83.80;;;;;;20914687;28;20227;-72
2022/11/02 16:49:15;;;;;;;15.83;3.30;;;13.80;85.60;;;;;;20853278;28;20212;-70
2022/11/02 16:59:17;;;;;;;6.83;2.90;;;13.80;86.90;;;;;;20832891;28;20228;-74
2022/11/02 17:09:28;;;;;;;8.43;3.30;;;13.70;87.90;;;;;;20848979;28;20224;-74
2022/11/02 17:20:15;;;;;;;8.93;3.90;;;13.70;88.40;;;;;;20914254;28;20235;-75
2022/11/02 17:30:40;;;;;;;11.03;2.97;;;13.60;89.10;;;;;;20913523;28;20263;-72
2022/11/02 17:40:42;;;;;;;12.40;3.90;;;13.50;89.30;;;;;;20913761;28;20243;-73
2022/11/02 17:50:45;;;;;;;12.03;3.50;;;13.40;89.70;;;;;;20912415;28;20260;-69
2022/11/02 18:00:47;;;;;;;15.20;3.60;;;13.40;90.00;;;;;;20912057;28;20285;-70
2022/11/02 18:10:50;;;;;;;17.13;8.53;;;13.20;89.60;;;;;;20911492;28;20337;-71
2022/11/02 18:20:52;;;;;;;12.60;4.77;;;13.10;89.80;;;;;;20887772;28;20262;-70
2022/11/02 18:30:54;;;;;;;11.70;4.30;;;13.10;90.30;;;;;;20903950;28;20210;-72
2022/11/02 18:40:56;;;;;;;12.13;4.50;;;12.70;90.80;;;;;;20914202;28;20242;-69
2022/11/02 18:51:03;;;;;;;12.20;4.57;;;12.60;91.20;;;;;;20922443;28;20203;-71
2022/11/02 19:01:07;;;;;;;16.13;7.73;;;12.50;91.70;;;;;;20920169;28;20234;-71
2022/11/02 19:11:09;;;;;;;17.70;7.63;;;12.20;91.80;;;;;;20923258;28;20233;-71
2022/11/02 19:21:10;;;;;;;16.63;6.53;;;11.90;91.90;;;;;;20907922;28;20631;-70
2022/11/02 19:31:12;;;;;;;14.70;6.67;;;11.70;92.50;;;;;;20836739;28;20218;-72
2022/11/02 19:41:15;;;;;;;18.10;6.13;;;11.30;92.80;;;;;;20837988;28;20637;-70
2022/11/02 19:51:23;;;;;;;15.80;7.63;;;11.30;93.10;;;;;;20837082;28;20206;-70
2022/11/02 20:01:27;;;;;;;15.13;6.63;;;11.00;93.20;;;;;;20836431;28;20236;-70
2022/11/02 20:11:30;;;;;;;15.27;7.27;;;10.90;93.50;;;;;;20835283;28;20261;-69
2022/11/02 20:21:32;;;;;;;15.17;6.70;;;10.80;93.80;;;;;;20834405;28;20628;-70
2022/11/02 20:31:43;;;;;;;13.93;6.40;;;10.60;94.20;;;;;;20833736;28;20255;-70
2022/11/02 20:41:44;;;;;;;18.00;7.53;;;10.60;94.60;;;;;;20833168;28;20254;-70
2022/11/02 20:51:46;;;;;;;18.60;6.77;;;10.50;94.70;;;;;;20832299;28;20228;-70
2022/11/02 21:01:48;;;;;;;12.07;6.30;;;10.20;95.10;;;;;;20830981;28;20233;-70
2022/11/02 21:22:11;;;;;;;19.93;8.07;;;10.20;95.50;;;;;;20829076;28;20256;-69
2022/11/02 21:32:13;;;;;;;14.20;7.30;;;10.00;95.70;;;;;;20827341;28;20212;-70
2022/11/02 21:42:14;;;;;;;16.70;7.30;;;10.00;95.90;;;;;;20828587;28;20242;-70
2022/11/02 21:52:16;;;;;;;19.33;7.10;;;9.80;96.50;;;;;;20827522;28;20255;-70
2022/11/02 22:02:18;;;;;;;14.13;7.67;;;9.80;96.40;;;;;;20826870;28;20244;-70
2022/11/02 22:22:42;;;;;;;20.60;7.57;;;9.70;96.90;;;;;;20830983;28;20232;-70
2022/11/02 22:32:43;;;;;;;19.73;8.20;;;9.60;97.10;;;;;;20842933;28;20351;-70
2022/11/02 22:42:45;;;;;;;18.17;7.80;;;9.60;97.00;;;;;;20842050;28;20243;-71
2022/11/02 22:52:47;;;;;;;18.43;7.00;;;9.50;97.20;;;;;;20843324;28;20206;-71
2022/11/02 23:02:48;;;;;;;14.20;7.50;;;9.50;97.30;;;;;;20842762;28;20299;-71
2022/11/02 23:12:50;;;;;;;17.23;8.00;;;9.50;97.40;;;;;;20842458;28;20203;-71
2022/11/02 23:32:53;;;;;;;15.47;6.97;;;9.30;97.50;;;;;;20920556;28;20251;-71
2022/11/02 23:42:55;;;;;;;14.53;7.00;;;9.20;97.60;;;;;;20922609;28;20231;-71
